createdAt,value
2018-03-25T00:01:45.774Z,3.14
2018-03-25T00:04:13.180Z,3.12
2018-03-25T00:06:40.605Z,3.10
2018-03-25T00:09:08.307Z,3.08
2018-03-25T00:11:35.707Z,3.08
2018-03-25T00:14:03.306Z,3.07
2018-03-25T00:16:30.717Z,3.06
2018-03-25T00:18:58.114Z,3.04
2018-03-25T00:21:25.525Z,3.00
2018-03-25T00:23:52.938Z,2.98
2018-03-25T00:26:20.342Z,2.96
2018-03-25T00:28:47.746Z,2.95
2018-03-25T00:31:15.165Z,2.94
2018-03-25T00:33:42.584Z,2.91
2018-03-25T00:36:09.989Z,2.90
2018-03-25T00:38:37.410Z,2.89
2018-03-25T00:41:04.799Z,2.88
2018-03-25T00:43:32.207Z,2.88
2018-03-25T00:45:59.619Z,2.87
2018-03-25T00:48:27.089Z,2.83
2018-03-25T00:50:54.446Z,2.77
2018-03-25T00:53:21.865Z,2.69
2018-03-25T00:55:49.272Z,2.65
2018-03-25T00:58:16.678Z,2.62
2018-03-25T01:00:44.215Z,2.60
2018-03-25T01:03:11.609Z,2.58
2018-03-25T01:05:39.023Z,2.57
2018-03-25T01:08:06.433Z,2.57
2018-03-25T01:10:33.834Z,2.55
2018-03-25T01:13:01.265Z,2.52
2018-03-25T01:18:29.438Z,2.47
2018-03-25T01:20:56.847Z,2.45
2018-03-25T01:23:24.262Z,2.44
2018-03-25T01:25:51.666Z,2.43
2018-03-25T01:28:19.247Z,2.42
2018-03-25T01:30:46.658Z,2.41
2018-03-25T01:33:14.058Z,2.41
2018-03-25T01:35:41.761Z,2.41
2018-03-25T01:38:09.166Z,2.39
2018-03-25T01:40:36.561Z,2.39
2018-03-25T01:43:04.083Z,2.38
2018-03-25T01:45:31.490Z,2.36
2018-03-25T01:47:58.897Z,2.36
2018-03-25T01:50:26.314Z,2.30
2018-03-25T01:52:53.732Z,2.24
2018-03-25T01:55:21.161Z,2.20
2018-03-25T01:57:48.570Z,2.18
2018-03-25T02:00:15.986Z,2.18
2018-03-25T02:02:43.395Z,2.17
2018-03-25T02:05:10.801Z,2.16
2018-03-25T02:07:38.222Z,2.14
2018-03-25T02:10:05.623Z,2.11
2018-03-25T02:12:33.034Z,2.11
2018-03-25T02:15:00.462Z,2.10
2018-03-25T02:17:27.865Z,2.11
2018-03-25T02:19:55.290Z,2.11
2018-03-25T02:22:22.694Z,2.10
2018-03-25T02:24:50.118Z,2.09
2018-03-25T02:27:17.522Z,2.07
2018-03-25T02:29:44.936Z,2.05
2018-03-25T02:32:12.353Z,2.04
2018-03-25T02:34:39.906Z,2.03
2018-03-25T02:37:07.432Z,2.03
2018-03-25T02:39:34.852Z,2.03
2018-03-25T02:42:02.290Z,2.02
2018-03-25T02:44:29.695Z,2.00
2018-03-25T02:46:57.104Z,1.97
2018-03-25T02:49:24.509Z,1.94
2018-03-25T02:51:51.927Z,1.91
2018-03-25T02:54:19.329Z,1.88
2018-03-25T02:56:46.760Z,1.87
2018-03-25T02:59:14.286Z,1.87
2018-03-25T03:01:41.699Z,1.86
2018-03-25T03:04:09.101Z,1.80
2018-03-25T03:06:36.522Z,1.76
2018-03-25T03:09:03.919Z,1.79
2018-03-25T03:11:31.325Z,1.80
2018-03-25T03:13:58.746Z,1.79
2018-03-25T03:16:26.153Z,1.78
2018-03-25T03:18:53.565Z,1.78
2018-03-25T03:21:20.975Z,1.77
2018-03-25T03:23:48.377Z,1.73
2018-03-25T03:26:15.796Z,1.70
2018-03-25T03:28:43.202Z,1.68
2018-03-25T03:31:10.597Z,1.69
2018-03-25T03:33:38.009Z,1.69
2018-03-25T03:36:05.421Z,1.72
2018-03-25T03:38:32.833Z,1.73
2018-03-25T03:41:00.233Z,1.72
2018-03-25T03:43:27.652Z,1.69
2018-03-25T03:45:55.067Z,1.68
2018-03-25T03:48:22.485Z,1.66
2018-03-25T03:50:50.167Z,1.64
2018-03-25T03:53:17.628Z,1.65
2018-03-25T03:55:45.034Z,1.66
2018-03-25T03:58:12.459Z,1.65
2018-03-25T04:00:39.857Z,1.63
2018-03-25T04:03:07.277Z,1.62
2018-03-25T04:05:34.673Z,1.60
2018-03-25T04:08:02.104Z,1.57
2018-03-25T04:10:29.507Z,1.55
2018-03-25T04:12:56.909Z,1.54
2018-03-25T04:15:24.321Z,1.55
2018-03-25T04:17:51.721Z,1.56
2018-03-25T04:20:19.145Z,1.57
2018-03-25T04:22:46.548Z,1.59
2018-03-25T04:25:13.953Z,1.54
2018-03-25T04:27:41.382Z,1.47
2018-03-25T04:30:08.785Z,1.45
2018-03-25T04:32:36.214Z,1.46
2018-03-25T04:35:03.619Z,1.41
2018-03-25T04:37:31.039Z,1.39
2018-03-25T04:39:58.465Z,1.40
2018-03-25T04:42:25.888Z,1.44
2018-03-25T04:44:53.317Z,1.47
2018-03-25T04:47:20.832Z,1.48
2018-03-25T04:49:48.219Z,1.48
2018-03-25T04:52:15.617Z,1.48
2018-03-25T04:54:43.081Z,1.45
2018-03-25T04:57:10.501Z,1.47
2018-03-25T04:59:37.915Z,1.50
2018-03-25T05:02:05.362Z,1.52
2018-03-25T05:04:32.769Z,1.55
2018-03-25T05:07:00.394Z,1.57
2018-03-25T05:09:27.802Z,1.57
2018-03-25T05:11:55.506Z,1.57
2018-03-25T05:14:23.033Z,1.61
2018-03-25T05:16:50.490Z,1.64
2018-03-25T05:19:18.019Z,1.68
2018-03-25T05:21:45.474Z,1.71
2018-03-25T05:24:12.873Z,1.76
2018-03-25T05:26:40.282Z,1.78
2018-03-25T05:29:07.706Z,1.83
2018-03-25T05:31:35.122Z,1.86
2018-03-25T05:34:02.526Z,1.91
2018-03-25T05:36:30.037Z,1.95
2018-03-25T05:38:57.555Z,2.02
2018-03-25T05:41:24.910Z,2.10
2018-03-25T05:43:52.455Z,2.17
2018-03-25T05:46:19.894Z,2.24
2018-03-25T05:48:47.320Z,2.31
2018-03-25T05:51:14.738Z,2.36
2018-03-25T05:53:42.185Z,2.44
2018-03-25T05:56:09.601Z,2.52
2018-03-25T05:58:37.001Z,2.62
2018-03-25T06:01:04.408Z,2.70
2018-03-25T06:03:32.090Z,2.76
2018-03-25T06:05:59.482Z,2.85
2018-03-25T06:08:26.885Z,2.93
2018-03-25T06:10:54.301Z,3.01
2018-03-25T06:13:21.722Z,3.08
2018-03-25T06:15:49.140Z,3.16
2018-03-25T06:18:16.545Z,3.23
2018-03-25T06:20:44.002Z,3.28
2018-03-25T06:23:11.689Z,3.35
2018-03-25T06:25:39.049Z,3.41
2018-03-25T06:28:06.442Z,3.47
2018-03-25T06:30:33.956Z,3.54
2018-03-25T06:33:01.372Z,3.60
2018-03-25T06:35:28.757Z,3.66
2018-03-25T06:37:56.377Z,3.72
2018-03-25T06:40:23.777Z,3.75
2018-03-25T06:42:51.181Z,3.77
2018-03-25T06:45:18.597Z,3.82
2018-03-25T06:47:45.997Z,3.91
2018-03-25T06:50:13.398Z,3.97
2018-03-25T06:52:40.815Z,4.06
2018-03-25T06:55:08.225Z,4.15
2018-03-25T06:57:35.631Z,4.24
2018-03-25T07:00:03.149Z,4.36
2018-03-25T07:02:30.550Z,4.49
2018-03-25T07:04:57.961Z,4.64
2018-03-25T07:07:25.395Z,4.77
2018-03-25T07:09:52.811Z,4.92
2018-03-25T07:12:20.221Z,5.01
2018-03-25T07:14:47.642Z,5.29
2018-03-25T07:17:15.058Z,5.64
2018-03-25T07:19:42.456Z,5.73
2018-03-25T07:22:09.877Z,5.78
2018-03-25T07:24:37.281Z,5.87
2018-03-25T07:27:04.704Z,5.85
2018-03-25T07:29:32.134Z,5.85
2018-03-25T07:31:59.554Z,5.83
2018-03-25T07:34:26.957Z,5.85
2018-03-25T07:36:54.353Z,5.86
2018-03-25T07:39:21.766Z,5.88
2018-03-25T07:41:49.178Z,5.95
2018-03-25T07:44:16.937Z,6.02
2018-03-25T07:46:44.453Z,6.10
2018-03-25T07:49:11.858Z,6.21
2018-03-25T07:51:39.257Z,6.35
2018-03-25T07:54:06.673Z,6.36
2018-03-25T07:56:34.073Z,6.42
2018-03-25T07:59:01.494Z,6.56
2018-03-25T08:01:28.897Z,6.75
2018-03-25T08:03:56.491Z,6.76
2018-03-25T08:06:23.882Z,6.82
2018-03-25T08:08:51.284Z,6.89
2018-03-25T08:11:18.702Z,7.01
2018-03-25T08:13:46.129Z,7.10
2018-03-25T08:16:13.627Z,7.26
2018-03-25T08:18:40.962Z,7.37
2018-03-25T08:21:08.632Z,7.50
2018-03-25T08:23:36.029Z,7.60
2018-03-25T08:26:03.442Z,7.67
2018-03-25T08:28:31.066Z,7.83
2018-03-25T08:30:58.464Z,7.86
2018-03-25T08:33:25.877Z,8.01
2018-03-25T08:35:53.290Z,8.25
2018-03-25T08:38:20.694Z,8.43
2018-03-25T08:40:48.128Z,8.57
2018-03-25T08:43:15.529Z,8.79
2018-03-25T08:45:42.954Z,9.06
2018-03-25T08:48:10.374Z,9.38
2018-03-25T08:50:37.770Z,9.62
2018-03-25T08:53:05.474Z,9.71
2018-03-25T08:55:32.877Z,9.67
2018-03-25T08:58:00.282Z,9.58
2018-03-25T09:00:27.700Z,9.66
2018-03-25T09:02:55.105Z,9.68
2018-03-25T09:05:22.818Z,9.68
2018-03-25T09:07:50.221Z,9.81
2018-03-25T09:10:17.645Z,10.06
2018-03-25T09:12:45.442Z,10.05
2018-03-25T09:15:12.853Z,10.26
2018-03-25T09:17:40.272Z,10.34
2018-03-25T09:20:07.698Z,10.46
2018-03-25T09:22:35.097Z,10.69
2018-03-25T09:25:02.730Z,10.85
2018-03-25T09:27:30.139Z,10.93
2018-03-25T09:29:57.541Z,11.06
2018-03-25T09:32:24.966Z,11.24
2018-03-25T09:34:52.386Z,11.31
2018-03-25T09:37:19.825Z,11.53
2018-03-25T09:39:47.222Z,11.62
2018-03-25T09:42:14.673Z,11.62
2018-03-25T09:44:42.068Z,11.70
2018-03-25T09:47:09.487Z,11.95
2018-03-25T09:49:36.913Z,11.89
2018-03-25T09:52:04.323Z,11.93
2018-03-25T09:54:31.769Z,12.15
2018-03-25T09:56:59.193Z,12.18
2018-03-25T09:59:26.598Z,12.24
2018-03-25T10:05:02.987Z,12.45
2018-03-25T10:07:30.819Z,12.62
2018-03-25T10:09:58.242Z,12.85
2018-03-25T10:12:25.736Z,13.00
2018-03-25T10:14:53.198Z,13.08
2018-03-25T10:17:20.905Z,13.14
2018-03-25T10:19:48.523Z,13.26
2018-03-25T10:22:15.957Z,13.28
2018-03-25T10:24:43.788Z,13.17
2018-03-25T10:27:11.223Z,13.29
2018-03-25T10:29:38.630Z,13.22
2018-03-25T10:32:06.057Z,13.29
2018-03-25T10:34:33.474Z,13.43
2018-03-25T10:37:01.009Z,13.45
2018-03-25T10:39:28.417Z,13.40
2018-03-25T10:41:55.850Z,13.17
2018-03-25T10:44:23.351Z,13.24
2018-03-25T10:46:50.878Z,13.29
2018-03-25T10:49:18.343Z,13.34
2018-03-25T10:51:45.763Z,13.51
2018-03-25T10:54:13.214Z,13.61
2018-03-25T10:56:40.720Z,13.52
2018-03-25T10:59:08.149Z,13.55
2018-03-25T11:01:35.574Z,13.53
2018-03-25T11:04:02.982Z,13.41
2018-03-25T11:06:30.417Z,13.57
2018-03-25T11:08:57.826Z,13.81
2018-03-25T11:11:25.266Z,13.99
2018-03-25T11:13:52.733Z,14.09
2018-03-25T11:16:20.206Z,14.24
2018-03-25T11:18:47.778Z,14.35
2018-03-25T11:21:15.186Z,14.33
2018-03-25T11:23:42.662Z,14.48
2018-03-25T11:26:10.102Z,14.59
2018-03-25T11:28:37.533Z,14.42
2018-03-25T11:31:04.946Z,14.53
2018-03-25T11:33:32.362Z,14.44
2018-03-25T11:35:59.889Z,14.42
2018-03-25T11:38:27.603Z,14.52
2018-03-25T11:40:55.026Z,14.60
2018-03-25T11:43:22.787Z,14.27
2018-03-25T11:45:50.216Z,14.42
2018-03-25T11:48:17.653Z,14.56
2018-03-25T11:50:45.303Z,14.59
2018-03-25T11:53:12.733Z,14.49
2018-03-25T11:55:40.117Z,14.31
2018-03-25T11:58:07.542Z,14.35
2018-03-25T12:00:34.950Z,14.24
2018-03-25T12:03:02.637Z,14.31
2018-03-25T12:05:30.035Z,14.38
2018-03-25T12:07:57.449Z,14.46
2018-03-25T12:10:24.882Z,14.50
2018-03-25T12:12:52.289Z,14.35
2018-03-25T12:15:19.782Z,14.50
2018-03-25T12:17:48.226Z,14.55
2018-03-25T12:20:15.808Z,14.39
2018-03-25T12:22:43.225Z,14.33
2018-03-25T12:25:10.638Z,14.20
2018-03-25T12:27:38.076Z,14.23
2018-03-25T12:30:05.483Z,14.28
2018-03-25T12:32:32.909Z,14.31
2018-03-25T12:35:00.326Z,14.24
2018-03-25T12:37:28.137Z,14.29
2018-03-25T12:39:55.554Z,14.33
2018-03-25T12:42:22.970Z,14.27
2018-03-25T12:44:50.395Z,14.35
2018-03-25T12:47:17.819Z,14.35
2018-03-25T12:49:45.245Z,14.44
2018-03-25T12:52:12.662Z,14.40
2018-03-25T12:54:40.383Z,14.24
2018-03-25T12:57:07.797Z,14.20
2018-03-25T12:59:35.212Z,14.25
2018-03-25T13:02:02.637Z,14.09
2018-03-25T13:04:30.041Z,13.90
2018-03-25T13:06:57.482Z,13.62
2018-03-25T13:09:24.910Z,13.30
2018-03-25T13:11:52.332Z,13.47
2018-03-25T13:14:19.757Z,13.67
2018-03-25T13:16:47.166Z,13.59
2018-03-25T13:19:14.585Z,13.65
2018-03-25T13:21:42.281Z,13.48
2018-03-25T13:24:09.685Z,12.94
2018-03-25T13:26:37.102Z,13.13
2018-03-25T13:29:04.534Z,13.15
2018-03-25T13:31:31.964Z,12.87
2018-03-25T13:33:59.505Z,13.08
2018-03-25T13:36:26.907Z,13.25
2018-03-25T13:38:54.671Z,12.87
2018-03-25T13:41:22.087Z,12.58
2018-03-25T13:43:49.501Z,12.94
2018-03-25T13:46:17.291Z,13.21
2018-03-25T13:48:44.696Z,13.17
2018-03-25T13:51:12.125Z,12.99
2018-03-25T13:53:39.560Z,13.00
2018-03-25T13:56:06.974Z,13.23
2018-03-25T13:58:34.397Z,13.45
2018-03-25T14:01:01.809Z,13.60
2018-03-25T14:03:29.210Z,13.43
2018-03-25T14:05:56.662Z,13.14
2018-03-25T14:08:24.108Z,13.22
2018-03-25T14:10:51.540Z,13.23
2018-03-25T14:13:18.996Z,13.34
2018-03-25T14:15:46.426Z,13.18
2018-03-25T14:18:13.849Z,13.25
2018-03-25T14:20:41.477Z,13.25
2018-03-25T14:23:08.955Z,13.33
2018-03-25T14:25:36.338Z,13.32
2018-03-25T14:28:03.774Z,13.37
2018-03-25T14:30:31.330Z,13.47
2018-03-25T14:32:58.754Z,13.05
2018-03-25T14:35:26.170Z,13.17
2018-03-25T14:37:53.738Z,13.23
2018-03-25T14:40:21.154Z,13.20
2018-03-25T14:42:48.566Z,13.17
2018-03-25T14:45:15.986Z,13.25
2018-03-25T14:47:43.558Z,13.21
2018-03-25T14:50:10.968Z,13.20
2018-03-25T14:52:38.401Z,13.00
2018-03-25T14:55:05.821Z,12.79
2018-03-25T14:57:34.214Z,12.67
2018-03-25T15:00:01.654Z,12.53
2018-03-25T15:02:29.058Z,12.53
2018-03-25T15:04:56.803Z,12.55
2018-03-25T15:07:24.238Z,12.55
2018-03-25T15:09:51.710Z,12.46
2018-03-25T15:12:19.210Z,12.45
2018-03-25T15:14:46.609Z,12.39
2018-03-25T15:17:14.053Z,12.39
2018-03-25T15:19:41.477Z,12.45
2018-03-25T15:22:08.885Z,12.46
2018-03-25T15:24:36.307Z,12.41
2018-03-25T15:27:03.726Z,12.36
2018-03-25T15:29:31.334Z,12.26
2018-03-25T15:31:58.751Z,12.30
2018-03-25T15:34:26.223Z,12.29
2018-03-25T15:36:53.652Z,12.24
2018-03-25T15:39:21.073Z,12.17
2018-03-25T15:41:48.498Z,12.16
2018-03-25T15:44:15.921Z,12.13
2018-03-25T15:46:43.346Z,12.15
2018-03-25T15:49:10.790Z,12.13
2018-03-25T15:51:38.236Z,12.09
2018-03-25T15:54:05.758Z,12.03
2018-03-25T15:56:33.166Z,12.02
2018-03-25T15:59:00.587Z,12.01
2018-03-25T16:01:28.006Z,11.96
2018-03-25T16:03:55.493Z,11.94
2018-03-25T16:06:22.921Z,11.92
2018-03-25T16:08:50.707Z,11.85
2018-03-25T16:11:18.187Z,11.88
2018-03-25T16:13:45.607Z,11.79
2018-03-25T16:16:13.035Z,11.75
2018-03-25T16:18:40.472Z,11.67
2018-03-25T16:21:07.884Z,11.55
2018-03-25T16:23:35.317Z,11.52
2018-03-25T16:26:02.742Z,11.51
2018-03-25T16:28:30.177Z,11.48
2018-03-25T16:30:57.607Z,11.50
2018-03-25T16:33:25.024Z,11.46
2018-03-25T16:35:52.737Z,11.51
2018-03-25T16:38:20.155Z,11.55
2018-03-25T16:40:47.577Z,11.54
2018-03-25T16:43:15.019Z,11.56
2018-03-25T16:45:42.435Z,11.50
2018-03-25T16:48:09.859Z,11.46
2018-03-25T16:50:37.320Z,11.46
2018-03-25T16:53:04.747Z,11.44
2018-03-25T16:55:32.154Z,11.40
2018-03-25T16:57:59.600Z,11.35
2018-03-25T17:00:27.151Z,11.30
2018-03-25T17:02:54.603Z,11.26
2018-03-25T17:05:22.029Z,11.27
2018-03-25T17:07:49.569Z,11.27
2018-03-25T17:10:17.178Z,11.21
2018-03-25T17:12:44.658Z,11.18
2018-03-25T17:15:12.090Z,11.20
2018-03-25T17:17:39.515Z,11.17
2018-03-25T17:20:06.938Z,11.17
2018-03-25T17:22:34.371Z,11.15
2018-03-25T17:25:02.020Z,11.10
2018-03-25T17:27:29.439Z,11.06
2018-03-25T17:29:56.879Z,11.02
2018-03-25T17:32:24.308Z,10.97
2018-03-25T17:34:51.836Z,10.91
2018-03-25T17:37:19.240Z,10.86
2018-03-25T17:39:46.655Z,10.83
2018-03-25T17:42:14.188Z,10.77
2018-03-25T17:44:41.640Z,10.74
2018-03-25T17:47:09.042Z,10.71
2018-03-25T17:49:36.476Z,10.66
2018-03-25T17:52:03.885Z,10.61
2018-03-25T17:54:31.318Z,10.55
2018-03-25T17:56:58.747Z,10.47
2018-03-25T17:59:26.493Z,10.40
2018-03-25T18:01:53.924Z,10.34
2018-03-25T18:04:21.458Z,10.26
2018-03-25T18:06:48.963Z,10.21
2018-03-25T18:09:16.398Z,10.12
2018-03-25T18:11:43.842Z,10.07
2018-03-25T18:14:11.282Z,10.04
2018-03-25T18:16:38.696Z,10.00
2018-03-25T18:19:06.113Z,9.95
2018-03-25T18:21:33.522Z,9.89
2018-03-25T18:24:00.922Z,9.83
2018-03-25T18:26:28.343Z,9.77
2018-03-25T18:28:55.754Z,9.72
2018-03-25T18:31:23.177Z,9.66
2018-03-25T18:33:50.590Z,9.61
2018-03-25T18:36:18.000Z,9.54
2018-03-25T18:38:45.417Z,9.47
2018-03-25T18:41:12.871Z,9.42
2018-03-25T18:43:40.274Z,9.38
2018-03-25T18:46:07.686Z,9.34
2018-03-25T18:48:35.093Z,9.29
2018-03-25T18:51:02.523Z,9.26
2018-03-25T18:53:29.930Z,9.22
2018-03-25T18:55:57.329Z,9.18
2018-03-25T18:58:24.757Z,9.16
2018-03-25T19:00:52.262Z,9.15
2018-03-25T19:03:19.682Z,9.13
2018-03-25T19:05:47.118Z,9.11
2018-03-25T19:08:14.516Z,9.10
2018-03-25T19:10:41.942Z,9.09
2018-03-25T19:13:09.346Z,9.09
2018-03-25T19:15:36.774Z,9.08
2018-03-25T19:18:04.182Z,9.06
2018-03-25T19:20:31.598Z,9.05
2018-03-25T19:22:59.021Z,9.04
2018-03-25T19:25:26.470Z,9.01
2018-03-25T19:27:53.930Z,8.95
2018-03-25T19:30:21.344Z,8.93
2018-03-25T19:32:48.915Z,8.89
2018-03-25T19:35:16.314Z,8.83
2018-03-25T19:37:43.812Z,8.77
2018-03-25T19:40:11.234Z,8.73
2018-03-25T19:42:38.661Z,8.69
2018-03-25T19:45:06.082Z,8.65
2018-03-25T19:47:33.489Z,8.62
2018-03-25T19:50:00.918Z,8.59
2018-03-25T19:52:28.339Z,8.58
2018-03-25T19:54:55.825Z,8.57
2018-03-25T19:57:23.383Z,8.57
2018-03-25T19:59:50.861Z,8.57
2018-03-25T20:02:18.730Z,8.57
2018-03-25T20:04:46.170Z,8.55
2018-03-25T20:07:13.614Z,8.52
2018-03-25T20:09:41.068Z,8.52
2018-03-25T20:12:08.498Z,8.50
2018-03-25T20:14:35.897Z,8.49
2018-03-25T20:17:03.327Z,8.44
2018-03-25T20:19:30.731Z,8.41
2018-03-25T20:21:58.171Z,8.42
2018-03-25T20:24:25.657Z,8.41
2018-03-25T20:26:53.118Z,8.38
2018-03-25T20:29:20.610Z,8.34
2018-03-25T20:31:48.206Z,8.31
2018-03-25T20:34:15.686Z,8.30
2018-03-25T20:36:43.112Z,8.32
2018-03-25T20:39:10.530Z,8.32
2018-03-25T20:41:37.941Z,8.33
2018-03-25T20:44:05.345Z,8.34
2018-03-25T20:46:32.772Z,8.34
2018-03-25T20:49:00.262Z,8.33
2018-03-25T20:51:27.667Z,8.25
2018-03-25T20:53:55.103Z,8.24
2018-03-25T20:56:22.536Z,8.23
2018-03-25T20:58:50.017Z,8.23
2018-03-25T21:01:17.560Z,8.24
2018-03-25T21:03:44.970Z,8.24
2018-03-25T21:06:12.389Z,8.24
2018-03-25T21:08:39.797Z,8.25
2018-03-25T21:11:07.205Z,8.25
2018-03-25T21:13:34.946Z,8.25
2018-03-25T21:16:02.351Z,8.25
2018-03-25T21:18:29.816Z,8.25
2018-03-25T21:20:57.268Z,8.24
2018-03-25T21:23:24.776Z,8.21
2018-03-25T21:25:52.258Z,8.20
2018-03-25T21:28:19.742Z,8.20
2018-03-25T21:30:47.694Z,8.19
2018-03-25T21:33:15.195Z,8.20
2018-03-25T21:35:42.684Z,8.21
2018-03-25T21:38:10.078Z,8.21
2018-03-25T21:40:37.520Z,8.22
2018-03-25T21:43:05.166Z,8.18
2018-03-25T21:45:32.680Z,8.10
2018-03-25T21:48:00.093Z,8.08
2018-03-25T21:50:27.518Z,8.09
2018-03-25T21:52:54.981Z,8.10
2018-03-25T21:55:22.438Z,8.12
2018-03-25T21:57:49.919Z,8.14
2018-03-25T22:00:17.388Z,8.14
2018-03-25T22:02:44.810Z,8.14
2018-03-25T22:05:12.245Z,8.15
2018-03-25T22:07:39.702Z,8.15
2018-03-25T22:10:07.142Z,8.17
2018-03-25T22:12:34.857Z,8.18
2018-03-25T22:15:02.257Z,8.18
2018-03-25T22:17:29.689Z,8.20
2018-03-25T22:19:57.197Z,8.19
2018-03-25T22:22:24.662Z,8.18
2018-03-25T22:24:52.112Z,8.17
2018-03-25T22:27:19.554Z,8.19
2018-03-25T22:29:47.504Z,8.21
2018-03-25T22:32:14.994Z,8.22
2018-03-25T22:34:42.402Z,8.23
2018-03-25T22:37:09.829Z,8.23
2018-03-25T22:39:37.238Z,8.25
2018-03-25T22:42:04.683Z,8.26
2018-03-25T22:44:32.091Z,8.25
2018-03-25T22:46:59.510Z,8.27
2018-03-25T22:49:26.917Z,8.28
2018-03-25T22:51:54.329Z,8.28
2018-03-25T22:54:21.762Z,8.28
2018-03-25T22:56:49.318Z,8.29
2018-03-25T22:59:16.814Z,8.29
2018-03-25T23:01:44.250Z,8.31
2018-03-25T23:04:11.776Z,8.33
2018-03-25T23:06:39.183Z,8.33
2018-03-25T23:09:06.602Z,8.30
2018-03-25T23:11:34.021Z,8.29
2018-03-25T23:14:01.430Z,8.29
2018-03-25T23:16:28.964Z,8.30
2018-03-25T23:18:56.372Z,8.31
2018-03-25T23:21:23.789Z,8.31
2018-03-25T23:23:51.247Z,8.30
2018-03-25T23:26:18.921Z,8.30
2018-03-25T23:28:46.371Z,8.30
2018-03-25T23:31:13.988Z,8.32
2018-03-25T23:33:41.431Z,8.31
2018-03-25T23:36:08.863Z,8.33
2018-03-25T23:38:36.300Z,8.32
2018-03-25T23:41:03.717Z,8.33
2018-03-25T23:43:31.126Z,8.34
2018-03-25T23:45:58.556Z,8.33
2018-03-25T23:48:25.994Z,8.30
2018-03-25T23:50:53.427Z,8.28
2018-03-25T23:53:20.941Z,8.26
2018-03-25T23:55:48.362Z,8.26
2018-03-25T23:58:15.773Z,8.26
